Ingram, Virginia
Current Conditions -  °F | °C
As of 2:15 PM on Friday 28 Nov 2014 (Local Time) from KW78 Reporting Station
Clear Clear  
Wind Chill: 39°   Ceiling: Unl
Heat Index: 43°   Visibility: 10mi
Dew Point: 18°   Wind: 6mph
Humidity: 37%   Direction: 250°WSW
Pressure: 30.28"   Gusts: NA
Location:  36.7891°N, 79.1183°W
Report Text: KW78 281915Z AUTO 25005KT 10SM CLR 06/M08 A3028 RMK AO1 T00611076
Loading
Personal Weather Stations






























Interactive Weather Map New forecast layout! Learn more

10-Day Weather Forecast

Advertisements
Track Severe Weather on mobile